Government of Jersey

Home Log in

METAR EGJJ 051950Z 09006KT 6000 FEW012 BKN035 06/05 Q1021

METAR EGJB 051950Z 12006KT 8000 FEW013 BKN036 07/05 Q1021

METAR EGJA 051820Z 12006KT 9999 VCSH FEW012 BKN042 07/05 Q1021

METAR LFRD 052000Z AUTO VRB02KT 7000 BKN032 03/02 Q1021 TEMPO 4000 BR BKN008

METAR LFRC 052000Z AUTO 12002KT 7000 FEW008 BKN018 BKN026 06/05 Q1022

METAR LFRT 052000Z AUTO 09004KT 9999 FEW033 04/02 Q1020